sensor_id;sensor_type;location;lat;lon;timestamp;P1;durP1;ratioP1;P2;durP2;ratioP2
9860;SDS011;4969;52.304;4.968;2024-03-22T00:02:25;24.30;;;21.73;;
9860;SDS011;4969;52.304;4.968;2024-03-22T00:04:50;34.08;;;27.77;;
9860;SDS011;4969;52.304;4.968;2024-03-22T00:07:17;39.65;;;31.13;;
9860;SDS011;4969;52.304;4.968;2024-03-22T00:09:42;31.92;;;26.23;;
9860;SDS011;4969;52.304;4.968;2024-03-22T00:12:09;34.30;;;28.30;;
9860;SDS011;4969;52.304;4.968;2024-03-22T00:14:35;28.08;;;24.05;;
9860;SDS011;4969;52.304;4.968;2024-03-22T00:17:03;27.10;;;24.20;;
9860;SDS011;4969;52.304;4.968;2024-03-22T00:19:28;29.20;;;24.35;;
9860;SDS011;4969;52.304;4.968;2024-03-22T00:21:55;35.15;;;29.67;;
9860;SDS011;4969;52.304;4.968;2024-03-22T00:24:20;29.73;;;25.08;;
9860;SDS011;4969;52.304;4.968;2024-03-22T00:26:47;26.92;;;22.90;;
9860;SDS011;4969;52.304;4.968;2024-03-22T00:29:12;23.00;;;19.50;;
9860;SDS011;4969;52.304;4.968;2024-03-22T00:31:39;34.55;;;28.30;;
9860;SDS011;4969;52.304;4.968;2024-03-22T00:34:08;29.88;;;23.48;;
9860;SDS011;4969;52.304;4.968;2024-03-22T00:36:34;27.15;;;21.67;;
9860;SDS011;4969;52.304;4.968;2024-03-22T00:39:00;31.67;;;25.85;;
9860;SDS011;4969;52.304;4.968;2024-03-22T00:41:28;26.38;;;22.05;;
9860;SDS011;4969;52.304;4.968;2024-03-22T00:43:53;24.67;;;21.65;;
9860;SDS011;4969;52.304;4.968;2024-03-22T00:46:20;28.27;;;23.35;;
9860;SDS011;4969;52.304;4.968;2024-03-22T00:48:46;31.73;;;25.80;;
9860;SDS011;4969;52.304;4.968;2024-03-22T00:51:13;28.08;;;23.58;;
9860;SDS011;4969;52.304;4.968;2024-03-22T00:53:39;26.00;;;22.10;;
9860;SDS011;4969;52.304;4.968;2024-03-22T00:56:06;32.05;;;25.05;;
9860;SDS011;4969;52.304;4.968;2024-03-22T00:58:31;31.10;;;25.90;;
9860;SDS011;4969;52.304;4.968;2024-03-22T01:00:58;32.63;;;25.60;;
9860;SDS011;4969;52.304;4.968;2024-03-22T01:03:23;32.40;;;25.90;;
9860;SDS011;4969;52.304;4.968;2024-03-22T01:05:50;33.50;;;26.20;;
9860;SDS011;4969;52.304;4.968;2024-03-22T01:08:17;31.10;;;24.40;;
9860;SDS011;4969;52.304;4.968;2024-03-22T01:10:44;35.28;;;27.05;;
9860;SDS011;4969;52.304;4.968;2024-03-22T01:13:10;29.15;;;22.83;;
9860;SDS011;4969;52.304;4.968;2024-03-22T01:15:36;25.95;;;20.48;;
9860;SDS011;4969;52.304;4.968;2024-03-22T01:18:02;30.05;;;22.15;;
9860;SDS011;4969;52.304;4.968;2024-03-22T01:20:29;27.52;;;22.25;;
9860;SDS011;4969;52.304;4.968;2024-03-22T01:22:54;34.33;;;24.45;;
9860;SDS011;4969;52.304;4.968;2024-03-22T01:25:22;30.48;;;23.00;;
9860;SDS011;4969;52.304;4.968;2024-03-22T01:27:48;27.10;;;20.38;;
9860;SDS011;4969;52.304;4.968;2024-03-22T01:30:14;28.08;;;20.35;;
9860;SDS011;4969;52.304;4.968;2024-03-22T01:32:40;26.70;;;20.38;;
9860;SDS011;4969;52.304;4.968;2024-03-22T01:35:07;25.40;;;19.20;;
9860;SDS011;4969;52.304;4.968;2024-03-22T01:37:33;31.60;;;22.25;;
9860;SDS011;4969;52.304;4.968;2024-03-22T01:40:00;25.90;;;18.88;;
9860;SDS011;4969;52.304;4.968;2024-03-22T01:42:27;34.15;;;23.73;;
9860;SDS011;4969;52.304;4.968;2024-03-22T01:44:53;33.35;;;23.75;;
9860;SDS011;4969;52.304;4.968;2024-03-22T01:54:02;29.75;;;21.75;;
9860;SDS011;4969;52.304;4.968;2024-03-22T01:56:30;30.25;;;21.42;;
9860;SDS011;4969;52.304;4.968;2024-03-22T01:58:57;38.13;;;24.40;;
9860;SDS011;4969;52.304;4.968;2024-03-22T02:01:24;31.83;;;22.67;;
9860;SDS011;4969;52.304;4.968;2024-03-22T02:03:51;24.67;;;18.45;;
9860;SDS011;4969;52.304;4.968;2024-03-22T02:06:17;31.90;;;22.52;;
9860;SDS011;4969;52.304;4.968;2024-03-22T02:08:43;33.08;;;23.70;;
9860;SDS011;4969;52.304;4.968;2024-03-22T02:11:09;32.58;;;21.88;;
9860;SDS011;4969;52.304;4.968;2024-03-22T02:13:35;28.13;;;20.00;;
9860;SDS011;4969;52.304;4.968;2024-03-22T02:16:04;26.67;;;20.00;;
9860;SDS011;4969;52.304;4.968;2024-03-22T02:18:29;26.15;;;19.17;;
9860;SDS011;4969;52.304;4.968;2024-03-22T02:20:56;32.67;;;22.90;;
9860;SDS011;4969;52.304;4.968;2024-03-22T02:23:26;36.33;;;23.85;;
9860;SDS011;4969;52.304;4.968;2024-03-22T02:25:56;31.95;;;22.00;;
9860;SDS011;4969;52.304;4.968;2024-03-22T02:28:22;30.38;;;20.50;;
9860;SDS011;4969;52.304;4.968;2024-03-22T02:30:49;36.13;;;24.98;;
9860;SDS011;4969;52.304;4.968;2024-03-22T02:33:14;32.88;;;22.38;;
9860;SDS011;4969;52.304;4.968;2024-03-22T02:35:41;26.77;;;20.35;;
9860;SDS011;4969;52.304;4.968;2024-03-22T02:38:07;35.20;;;24.05;;
9860;SDS011;4969;52.304;4.968;2024-03-22T02:40:35;32.08;;;22.85;;
9860;SDS011;4969;52.304;4.968;2024-03-22T02:43:00;29.58;;;20.80;;
9860;SDS011;4969;52.304;4.968;2024-03-22T02:45:27;30.23;;;22.27;;
9860;SDS011;4969;52.304;4.968;2024-03-22T02:47:52;26.33;;;19.45;;
9860;SDS011;4969;52.304;4.968;2024-03-22T02:50:19;28.85;;;19.33;;
9860;SDS011;4969;52.304;4.968;2024-03-22T02:52:44;23.23;;;17.52;;
9860;SDS011;4969;52.304;4.968;2024-03-22T02:55:11;22.73;;;17.92;;
9860;SDS011;4969;52.304;4.968;2024-03-22T02:57:38;24.73;;;18.73;;
9860;SDS011;4969;52.304;4.968;2024-03-22T03:00:05;26.50;;;17.15;;
9860;SDS011;4969;52.304;4.968;2024-03-22T03:02:31;22.92;;;15.93;;
9860;SDS011;4969;52.304;4.968;2024-03-22T03:04:58;20.88;;;15.18;;
9860;SDS011;4969;52.304;4.968;2024-03-22T03:07:23;21.50;;;15.77;;
9860;SDS011;4969;52.304;4.968;2024-03-22T03:09:50;21.23;;;17.02;;
9860;SDS011;4969;52.304;4.968;2024-03-22T03:12:15;23.15;;;16.55;;
9860;SDS011;4969;52.304;4.968;2024-03-22T03:14:43;19.15;;;15.52;;
9860;SDS011;4969;52.304;4.968;2024-03-22T03:17:09;18.60;;;14.88;;
9860;SDS011;4969;52.304;4.968;2024-03-22T03:19:35;17.73;;;15.18;;
9860;SDS011;4969;52.304;4.968;2024-03-22T03:22:01;20.98;;;17.65;;
9860;SDS011;4969;52.304;4.968;2024-03-22T03:24:28;21.83;;;17.30;;
9860;SDS011;4969;52.304;4.968;2024-03-22T03:26:53;21.38;;;17.40;;
9860;SDS011;4969;52.304;4.968;2024-03-22T03:29:20;22.75;;;18.13;;
9860;SDS011;4969;52.304;4.968;2024-03-22T03:31:47;19.50;;;16.73;;
9860;SDS011;4969;52.304;4.968;2024-03-22T03:34:13;19.52;;;15.98;;
9860;SDS011;4969;52.304;4.968;2024-03-22T03:36:39;21.60;;;16.55;;
9860;SDS011;4969;52.304;4.968;2024-03-22T03:39:06;21.05;;;17.15;;
9860;SDS011;4969;52.304;4.968;2024-03-22T03:41:31;16.83;;;13.55;;
9860;SDS011;4969;52.304;4.968;2024-03-22T03:43:58;20.42;;;17.25;;
9860;SDS011;4969;52.304;4.968;2024-03-22T03:46:23;21.67;;;17.02;;
9860;SDS011;4969;52.304;4.968;2024-03-22T03:48:51;22.45;;;15.52;;
9860;SDS011;4969;52.304;4.968;2024-03-22T03:51:17;19.98;;;15.05;;
9860;SDS011;4969;52.304;4.968;2024-03-22T03:53:43;20.92;;;16.60;;
9860;SDS011;4969;52.304;4.968;2024-03-22T03:56:09;16.55;;;12.77;;
9860;SDS011;4969;52.304;4.968;2024-03-22T03:58:35;17.77;;;14.07;;
9860;SDS011;4969;52.304;4.968;2024-03-22T04:01:04;16.65;;;12.65;;
9860;SDS011;4969;52.304;4.968;2024-03-22T04:03:31;22.35;;;15.35;;
9860;SDS011;4969;52.304;4.968;2024-03-22T04:05:58;18.88;;;14.38;;
9860;SDS011;4969;52.304;4.968;2024-03-22T04:08:25;20.85;;;13.35;;
9860;SDS011;4969;52.304;4.968;2024-03-22T04:10:51;18.35;;;12.70;;
9860;SDS011;4969;52.304;4.968;2024-03-22T04:13:18;17.90;;;11.82;;
9860;SDS011;4969;52.304;4.968;2024-03-22T04:15:43;21.30;;;13.93;;
9860;SDS011;4969;52.304;4.968;2024-03-22T04:18:10;19.08;;;13.25;;
9860;SDS011;4969;52.304;4.968;2024-03-22T04:20:35;20.15;;;14.35;;
9860;SDS011;4969;52.304;4.968;2024-03-22T04:23:04;22.83;;;14.80;;
9860;SDS011;4969;52.304;4.968;2024-03-22T04:25:29;19.02;;;14.13;;
9860;SDS011;4969;52.304;4.968;2024-03-22T04:27:56;21.23;;;14.40;;
9860;SDS011;4969;52.304;4.968;2024-03-22T04:30:21;24.38;;;14.35;;
9860;SDS011;4969;52.304;4.968;2024-03-22T04:32:48;22.58;;;14.82;;
9860;SDS011;4969;52.304;4.968;2024-03-22T04:35:13;19.17;;;12.48;;
9860;SDS011;4969;52.304;4.968;2024-03-22T04:37:40;25.25;;;14.65;;
9860;SDS011;4969;52.304;4.968;2024-03-22T04:40:09;22.55;;;13.70;;
9860;SDS011;4969;52.304;4.968;2024-03-22T04:42:36;22.48;;;13.90;;
9860;SDS011;4969;52.304;4.968;2024-03-22T04:45:03;16.13;;;11.15;;
9860;SDS011;4969;52.304;4.968;2024-03-22T04:47:30;18.60;;;12.05;;
9860;SDS011;4969;52.304;4.968;2024-03-22T04:49:55;20.10;;;11.20;;
9860;SDS011;4969;52.304;4.968;2024-03-22T04:52:22;19.23;;;11.38;;
9860;SDS011;4969;52.304;4.968;2024-03-22T04:54:48;18.77;;;10.95;;
9860;SDS011;4969;52.304;4.968;2024-03-22T04:57:15;23.77;;;12.82;;
9860;SDS011;4969;52.304;4.968;2024-03-22T04:59:41;20.88;;;12.27;;
9860;SDS011;4969;52.304;4.968;2024-03-22T05:02:07;18.55;;;10.52;;
9860;SDS011;4969;52.304;4.968;2024-03-22T05:04:33;16.90;;;10.98;;
9860;SDS011;4969;52.304;4.968;2024-03-22T05:06:59;20.77;;;12.50;;
9860;SDS011;4969;52.304;4.968;2024-03-22T05:09:25;17.05;;;10.40;;
9860;SDS011;4969;52.304;4.968;2024-03-22T05:11:51;21.42;;;11.48;;
9860;SDS011;4969;52.304;4.968;2024-03-22T05:14:19;18.38;;;9.45;;
9860;SDS011;4969;52.304;4.968;2024-03-22T05:16:46;18.65;;;10.98;;
9860;SDS011;4969;52.304;4.968;2024-03-22T05:19:13;17.33;;;10.45;;
9860;SDS011;4969;52.304;4.968;2024-03-22T05:21:38;20.88;;;9.93;;
9860;SDS011;4969;52.304;4.968;2024-03-22T05:24:05;16.08;;;9.75;;
9860;SDS011;4969;52.304;4.968;2024-03-22T05:26:30;17.45;;;9.48;;
9860;SDS011;4969;52.304;4.968;2024-03-22T05:29:01;19.42;;;9.65;;
9860;SDS011;4969;52.304;4.968;2024-03-22T05:31:29;16.25;;;9.23;;
9860;SDS011;4969;52.304;4.968;2024-03-22T05:33:55;17.13;;;8.90;;
9860;SDS011;4969;52.304;4.968;2024-03-22T05:36:21;18.23;;;10.63;;
9860;SDS011;4969;52.304;4.968;2024-03-22T05:38:47;16.67;;;9.43;;
9860;SDS011;4969;52.304;4.968;2024-03-22T05:41:13;21.65;;;9.25;;
9860;SDS011;4969;52.304;4.968;2024-03-22T05:43:39;17.35;;;8.00;;
9860;SDS011;4969;52.304;4.968;2024-03-22T05:46:05;15.13;;;8.38;;
9860;SDS011;4969;52.304;4.968;2024-03-22T05:48:33;18.75;;;9.35;;
9860;SDS011;4969;52.304;4.968;2024-03-22T05:50:58;16.77;;;8.40;;
9860;SDS011;4969;52.304;4.968;2024-03-22T05:53:25;16.77;;;9.57;;
9860;SDS011;4969;52.304;4.968;2024-03-22T05:55:50;20.23;;;9.40;;
9860;SDS011;4969;52.304;4.968;2024-03-22T05:58:17;12.15;;;8.00;;
9860;SDS011;4969;52.304;4.968;2024-03-22T06:00:43;16.23;;;9.52;;
9860;SDS011;4969;52.304;4.968;2024-03-22T06:03:09;17.17;;;8.60;;
9860;SDS011;4969;52.304;4.968;2024-03-22T06:05:36;19.67;;;9.48;;
9860;SDS011;4969;52.304;4.968;2024-03-22T06:08:04;18.80;;;9.73;;
9860;SDS011;4969;52.304;4.968;2024-03-22T06:10:30;15.30;;;9.18;;
9860;SDS011;4969;52.304;4.968;2024-03-22T06:12:56;17.02;;;9.88;;
9860;SDS011;4969;52.304;4.968;2024-03-22T06:15:22;14.23;;;7.85;;
9860;SDS011;4969;52.304;4.968;2024-03-22T06:17:48;15.82;;;9.75;;
9860;SDS011;4969;52.304;4.968;2024-03-22T06:20:15;18.98;;;9.98;;
9860;SDS011;4969;52.304;4.968;2024-03-22T06:22:43;13.98;;;8.45;;
9860;SDS011;4969;52.304;4.968;2024-03-22T06:25:08;16.13;;;9.50;;
9860;SDS011;4969;52.304;4.968;2024-03-22T06:27:35;16.15;;;9.07;;
9860;SDS011;4969;52.304;4.968;2024-03-22T06:30:00;14.75;;;7.88;;
9860;SDS011;4969;52.304;4.968;2024-03-22T06:32:28;15.98;;;9.32;;
9860;SDS011;4969;52.304;4.968;2024-03-22T06:34:53;16.15;;;9.15;;
9860;SDS011;4969;52.304;4.968;2024-03-22T06:37:20;11.30;;;7.70;;
9860;SDS011;4969;52.304;4.968;2024-03-22T06:39:47;10.30;;;7.20;;
9860;SDS011;4969;52.304;4.968;2024-03-22T06:42:13;11.65;;;7.00;;
9860;SDS011;4969;52.304;4.968;2024-03-22T06:44:39;10.10;;;6.50;;
9860;SDS011;4969;52.304;4.968;2024-03-22T06:47:06;14.15;;;6.70;;
9860;SDS011;4969;52.304;4.968;2024-03-22T06:49:31;12.05;;;6.10;;
9860;SDS011;4969;52.304;4.968;2024-03-22T06:51:58;13.15;;;6.40;;
9860;SDS011;4969;52.304;4.968;2024-03-22T06:54:24;13.35;;;6.75;;
9860;SDS011;4969;52.304;4.968;2024-03-22T06:56:52;10.57;;;5.85;;
9860;SDS011;4969;52.304;4.968;2024-03-22T06:59:18;13.77;;;6.30;;
9860;SDS011;4969;52.304;4.968;2024-03-22T07:01:44;11.85;;;6.68;;
9860;SDS011;4969;52.304;4.968;2024-03-22T07:04:10;10.57;;;6.53;;
9860;SDS011;4969;52.304;4.968;2024-03-22T07:06:37;11.05;;;6.43;;
9860;SDS011;4969;52.304;4.968;2024-03-22T07:09:02;15.82;;;7.57;;
9860;SDS011;4969;52.304;4.968;2024-03-22T07:11:29;16.10;;;7.97;;
9860;SDS011;4969;52.304;4.968;2024-03-22T07:13:56;15.93;;;7.70;;
9860;SDS011;4969;52.304;4.968;2024-03-22T07:16:23;12.98;;;6.75;;
9860;SDS011;4969;52.304;4.968;2024-03-22T07:18:49;14.57;;;7.05;;
9860;SDS011;4969;52.304;4.968;2024-03-22T07:21:15;13.98;;;5.57;;
9860;SDS011;4969;52.304;4.968;2024-03-22T07:23:41;15.35;;;7.03;;
9860;SDS011;4969;52.304;4.968;2024-03-22T07:26:08;15.75;;;7.45;;
9860;SDS011;4969;52.304;4.968;2024-03-22T07:28:34;15.27;;;7.22;;
9860;SDS011;4969;52.304;4.968;2024-03-22T07:31:02;12.90;;;6.97;;
9860;SDS011;4969;52.304;4.968;2024-03-22T07:33:27;13.43;;;7.00;;
9860;SDS011;4969;52.304;4.968;2024-03-22T07:35:54;19.42;;;7.45;;
9860;SDS011;4969;52.304;4.968;2024-03-22T07:38:19;12.67;;;6.23;;
9860;SDS011;4969;52.304;4.968;2024-03-22T07:40:46;15.10;;;6.53;;
9860;SDS011;4969;52.304;4.968;2024-03-22T07:43:11;14.30;;;7.07;;
9860;SDS011;4969;52.304;4.968;2024-03-22T07:45:39;12.35;;;7.30;;
9860;SDS011;4969;52.304;4.968;2024-03-22T07:48:07;13.73;;;6.85;;
9860;SDS011;4969;52.304;4.968;2024-03-22T07:50:33;13.48;;;7.05;;
9860;SDS011;4969;52.304;4.968;2024-03-22T07:52:59;13.95;;;7.55;;
9860;SDS011;4969;52.304;4.968;2024-03-22T07:55:25;15.95;;;6.90;;
9860;SDS011;4969;52.304;4.968;2024-03-22T07:57:51;14.10;;;7.78;;
9860;SDS011;4969;52.304;4.968;2024-03-22T08:00:18;15.88;;;8.15;;
9860;SDS011;4969;52.304;4.968;2024-03-22T08:02:44;14.10;;;7.18;;
9860;SDS011;4969;52.304;4.968;2024-03-22T08:05:12;14.50;;;7.78;;
9860;SDS011;4969;52.304;4.968;2024-03-22T08:07:38;18.52;;;7.90;;
9860;SDS011;4969;52.304;4.968;2024-03-22T08:10:05;14.65;;;8.10;;
9860;SDS011;4969;52.304;4.968;2024-03-22T08:12:31;13.18;;;7.32;;
9860;SDS011;4969;52.304;4.968;2024-03-22T08:14:57;13.30;;;7.15;;
9860;SDS011;4969;52.304;4.968;2024-03-22T08:17:23;17.05;;;9.10;;
9860;SDS011;4969;52.304;4.968;2024-03-22T08:19:49;15.05;;;8.18;;
9860;SDS011;4969;52.304;4.968;2024-03-22T08:22:16;13.38;;;7.18;;
9860;SDS011;4969;52.304;4.968;2024-03-22T08:24:42;16.25;;;8.77;;
9860;SDS011;4969;52.304;4.968;2024-03-22T08:27:08;14.68;;;8.10;;
9860;SDS011;4969;52.304;4.968;2024-03-22T08:29:35;14.43;;;6.88;;
9860;SDS011;4969;52.304;4.968;2024-03-22T08:32:00;13.13;;;7.50;;
9860;SDS011;4969;52.304;4.968;2024-03-22T08:34:29;13.05;;;7.13;;
9860;SDS011;4969;52.304;4.968;2024-03-22T08:36:55;17.83;;;8.60;;
9860;SDS011;4969;52.304;4.968;2024-03-22T08:39:22;13.50;;;8.05;;
9860;SDS011;4969;52.304;4.968;2024-03-22T08:41:49;13.88;;;7.15;;
9860;SDS011;4969;52.304;4.968;2024-03-22T08:44:16;15.98;;;8.27;;
9860;SDS011;4969;52.304;4.968;2024-03-22T08:46:41;13.75;;;8.05;;
9860;SDS011;4969;52.304;4.968;2024-03-22T08:49:08;10.95;;;6.90;;
9860;SDS011;4969;52.304;4.968;2024-03-22T08:51:34;14.90;;;7.50;;
9860;SDS011;4969;52.304;4.968;2024-03-22T08:54:01;13.98;;;7.80;;
9860;SDS011;4969;52.304;4.968;2024-03-22T08:56:28;13.77;;;8.77;;
9860;SDS011;4969;52.304;4.968;2024-03-22T08:58:54;14.73;;;7.60;;
9860;SDS011;4969;52.304;4.968;2024-03-22T09:01:20;14.18;;;7.55;;
9860;SDS011;4969;52.304;4.968;2024-03-22T09:03:47;13.82;;;8.32;;
9860;SDS011;4969;52.304;4.968;2024-03-22T09:06:14;16.35;;;8.52;;
9860;SDS011;4969;52.304;4.968;2024-03-22T09:08:41;12.18;;;6.93;;
9860;SDS011;4969;52.304;4.968;2024-03-22T09:11:06;14.38;;;7.43;;
9860;SDS011;4969;52.304;4.968;2024-03-22T09:13:34;15.30;;;7.38;;
9860;SDS011;4969;52.304;4.968;2024-03-22T09:16:00;11.55;;;6.07;;
9860;SDS011;4969;52.304;4.968;2024-03-22T09:18:27;16.30;;;7.93;;
9860;SDS011;4969;52.304;4.968;2024-03-22T09:20:53;8.60;;;5.78;;
9860;SDS011;4969;52.304;4.968;2024-03-22T09:23:21;11.90;;;6.75;;
9860;SDS011;4969;52.304;4.968;2024-03-22T09:25:47;13.73;;;8.00;;
9860;SDS011;4969;52.304;4.968;2024-03-22T09:28:13;12.48;;;6.85;;
9860;SDS011;4969;52.304;4.968;2024-03-22T09:30:40;13.07;;;7.95;;
9860;SDS011;4969;52.304;4.968;2024-03-22T09:33:08;13.98;;;7.95;;
9860;SDS011;4969;52.304;4.968;2024-03-22T09:35:34;15.55;;;8.07;;
9860;SDS011;4969;52.304;4.968;2024-03-22T09:38:01;14.32;;;8.07;;
9860;SDS011;4969;52.304;4.968;2024-03-22T09:40:27;14.77;;;7.45;;
9860;SDS011;4969;52.304;4.968;2024-03-22T09:42:53;12.80;;;7.97;;
9860;SDS011;4969;52.304;4.968;2024-03-22T09:45:25;14.23;;;8.10;;
9860;SDS011;4969;52.304;4.968;2024-03-22T09:47:53;9.60;;;6.85;;
9860;SDS011;4969;52.304;4.968;2024-03-22T09:50:20;13.75;;;7.90;;
9860;SDS011;4969;52.304;4.968;2024-03-22T09:52:47;11.02;;;6.07;;
9860;SDS011;4969;52.304;4.968;2024-03-22T09:55:14;8.57;;;6.80;;
9860;SDS011;4969;52.304;4.968;2024-03-22T09:57:41;11.82;;;7.38;;
9860;SDS011;4969;52.304;4.968;2024-03-22T10:00:08;11.90;;;7.45;;
9860;SDS011;4969;52.304;4.968;2024-03-22T10:02:39;12.38;;;6.78;;
9860;SDS011;4969;52.304;4.968;2024-03-22T10:05:07;10.55;;;7.13;;
9860;SDS011;4969;52.304;4.968;2024-03-22T10:07:33;12.52;;;7.80;;
9860;SDS011;4969;52.304;4.968;2024-03-22T10:10:00;11.32;;;7.60;;
9860;SDS011;4969;52.304;4.968;2024-03-22T10:12:28;9.85;;;6.97;;
9860;SDS011;4969;52.304;4.968;2024-03-22T10:14:54;13.38;;;6.70;;
9860;SDS011;4969;52.304;4.968;2024-03-22T10:17:21;8.80;;;7.00;;
9860;SDS011;4969;52.304;4.968;2024-03-22T10:19:48;10.00;;;7.10;;
9860;SDS011;4969;52.304;4.968;2024-03-22T10:22:17;8.43;;;6.43;;
9860;SDS011;4969;52.304;4.968;2024-03-22T10:24:42;8.33;;;6.63;;
9860;SDS011;4969;52.304;4.968;2024-03-22T10:27:09;8.68;;;6.63;;
9860;SDS011;4969;52.304;4.968;2024-03-22T10:29:35;9.35;;;6.88;;
9860;SDS011;4969;52.304;4.968;2024-03-22T10:32:02;9.20;;;5.70;;
9860;SDS011;4969;52.304;4.968;2024-03-22T10:34:28;9.50;;;6.40;;
9860;SDS011;4969;52.304;4.968;2024-03-22T10:36:55;8.45;;;6.57;;
9860;SDS011;4969;52.304;4.968;2024-03-22T10:39:22;10.02;;;7.13;;
9860;SDS011;4969;52.304;4.968;2024-03-22T10:41:49;7.65;;;6.20;;
9860;SDS011;4969;52.304;4.968;2024-03-22T10:44:15;10.63;;;7.32;;
9860;SDS011;4969;52.304;4.968;2024-03-22T10:46:43;10.43;;;7.20;;
9860;SDS011;4969;52.304;4.968;2024-03-22T10:49:11;6.80;;;5.78;;
9860;SDS011;4969;52.304;4.968;2024-03-22T10:51:42;7.53;;;6.35;;
9860;SDS011;4969;52.304;4.968;2024-03-22T10:54:10;6.38;;;5.28;;
9860;SDS011;4969;52.304;4.968;2024-03-22T10:56:41;6.88;;;6.28;;
9860;SDS011;4969;52.304;4.968;2024-03-22T10:59:06;7.03;;;6.05;;
9860;SDS011;4969;52.304;4.968;2024-03-22T11:01:33;6.65;;;5.90;;
9860;SDS011;4969;52.304;4.968;2024-03-22T11:04:05;6.40;;;5.78;;
9860;SDS011;4969;52.304;4.968;2024-03-22T11:06:34;8.60;;;6.35;;
9860;SDS011;4969;52.304;4.968;2024-03-22T11:09:02;7.20;;;6.13;;
9860;SDS011;4969;52.304;4.968;2024-03-22T11:11:29;8.07;;;6.53;;
9860;SDS011;4969;52.304;4.968;2024-03-22T11:13:56;8.07;;;6.93;;
9860;SDS011;4969;52.304;4.968;2024-03-22T11:16:22;7.55;;;6.80;;
9860;SDS011;4969;52.304;4.968;2024-03-22T11:18:48;8.25;;;7.47;;
9860;SDS011;4969;52.304;4.968;2024-03-22T11:21:15;9.32;;;7.93;;
9860;SDS011;4969;52.304;4.968;2024-03-22T11:23:40;10.05;;;9.05;;
9860;SDS011;4969;52.304;4.968;2024-03-22T11:26:10;13.33;;;9.67;;
9860;SDS011;4969;52.304;4.968;2024-03-22T11:28:37;13.32;;;9.82;;
9860;SDS011;4969;52.304;4.968;2024-03-22T11:31:05;13.10;;;10.70;;
9860;SDS011;4969;52.304;4.968;2024-03-22T11:33:31;13.70;;;10.97;;
9860;SDS011;4969;52.304;4.968;2024-03-22T11:35:58;15.10;;;11.50;;
9860;SDS011;4969;52.304;4.968;2024-03-22T11:38:24;15.20;;;11.20;;
9860;SDS011;4969;52.304;4.968;2024-03-22T11:40:52;14.70;;;11.23;;
9860;SDS011;4969;52.304;4.968;2024-03-22T11:43:18;17.58;;;11.45;;
9860;SDS011;4969;52.304;4.968;2024-03-22T11:45:45;13.50;;;10.63;;
9860;SDS011;4969;52.304;4.968;2024-03-22T11:48:12;15.57;;;11.60;;
9860;SDS011;4969;52.304;4.968;2024-03-22T11:50:39;16.63;;;11.20;;
9860;SDS011;4969;52.304;4.968;2024-03-22T11:53:05;17.77;;;12.43;;
9860;SDS011;4969;52.304;4.968;2024-03-22T11:55:32;12.93;;;10.73;;
9860;SDS011;4969;52.304;4.968;2024-03-22T11:57:57;14.10;;;10.00;;
9860;SDS011;4969;52.304;4.968;2024-03-22T12:00:24;16.38;;;10.80;;
9860;SDS011;4969;52.304;4.968;2024-03-22T12:02:50;13.75;;;10.45;;
9860;SDS011;4969;52.304;4.968;2024-03-22T12:05:18;15.50;;;10.85;;
9860;SDS011;4969;52.304;4.968;2024-03-22T12:07:45;13.80;;;9.75;;
9860;SDS011;4969;52.304;4.968;2024-03-22T12:10:12;13.38;;;9.75;;
9860;SDS011;4969;52.304;4.968;2024-03-22T12:12:38;14.87;;;10.27;;
9860;SDS011;4969;52.304;4.968;2024-03-22T12:15:04;15.17;;;10.40;;
9860;SDS011;4969;52.304;4.968;2024-03-22T12:17:32;14.02;;;9.90;;
9860;SDS011;4969;52.304;4.968;2024-03-22T12:19:58;12.93;;;10.07;;
9860;SDS011;4969;52.304;4.968;2024-03-22T12:22:26;13.40;;;10.15;;
9860;SDS011;4969;52.304;4.968;2024-03-22T12:24:52;13.20;;;8.47;;
9860;SDS011;4969;52.304;4.968;2024-03-22T12:27:18;12.40;;;8.57;;
9860;SDS011;4969;52.304;4.968;2024-03-22T12:29:44;12.07;;;8.80;;
9860;SDS011;4969;52.304;4.968;2024-03-22T12:32:10;14.52;;;9.00;;
9860;SDS011;4969;52.304;4.968;2024-03-22T12:34:37;14.07;;;9.40;;
9860;SDS011;4969;52.304;4.968;2024-03-22T12:37:03;13.02;;;8.85;;
9860;SDS011;4969;52.304;4.968;2024-03-22T12:39:31;13.10;;;9.30;;
9860;SDS011;4969;52.304;4.968;2024-03-22T12:41:57;10.30;;;8.55;;
9860;SDS011;4969;52.304;4.968;2024-03-22T12:44:23;10.10;;;7.22;;
9860;SDS011;4969;52.304;4.968;2024-03-22T12:46:49;13.98;;;9.68;;
9860;SDS011;4969;52.304;4.968;2024-03-22T12:49:16;13.37;;;9.30;;
9860;SDS011;4969;52.304;4.968;2024-03-22T12:51:42;13.03;;;9.27;;
9860;SDS011;4969;52.304;4.968;2024-03-22T12:54:08;13.23;;;9.27;;
9860;SDS011;4969;52.304;4.968;2024-03-22T12:56:36;9.57;;;6.65;;
9860;SDS011;4969;52.304;4.968;2024-03-22T12:59:04;11.20;;;7.60;;
9860;SDS011;4969;52.304;4.968;2024-03-22T13:01:30;14.15;;;9.00;;
9860;SDS011;4969;52.304;4.968;2024-03-22T13:03:57;12.55;;;7.68;;
9860;SDS011;4969;52.304;4.968;2024-03-22T13:06:23;13.18;;;8.30;;
9860;SDS011;4969;52.304;4.968;2024-03-22T13:08:50;9.18;;;7.18;;
9860;SDS011;4969;52.304;4.968;2024-03-22T13:11:15;12.68;;;7.95;;
9860;SDS011;4969;52.304;4.968;2024-03-22T13:13:43;13.87;;;7.53;;
9860;SDS011;4969;52.304;4.968;2024-03-22T13:16:09;12.53;;;6.90;;
9860;SDS011;4969;52.304;4.968;2024-03-22T13:18:39;11.95;;;7.38;;
9860;SDS011;4969;52.304;4.968;2024-03-22T13:21:05;11.05;;;6.78;;
9860;SDS011;4969;52.304;4.968;2024-03-22T13:23:31;15.60;;;7.40;;
9860;SDS011;4969;52.304;4.968;2024-03-22T13:26:00;9.57;;;6.50;;
9860;SDS011;4969;52.304;4.968;2024-03-22T13:28:29;13.55;;;7.07;;
9860;SDS011;4969;52.304;4.968;2024-03-22T13:31:00;11.40;;;6.43;;
9860;SDS011;4969;52.304;4.968;2024-03-22T13:33:27;14.60;;;6.90;;
9860;SDS011;4969;52.304;4.968;2024-03-22T13:35:53;12.07;;;5.70;;
9860;SDS011;4969;52.304;4.968;2024-03-22T13:38:20;14.17;;;6.80;;
9860;SDS011;4969;52.304;4.968;2024-03-22T13:40:52;10.93;;;6.53;;
9860;SDS011;4969;52.304;4.968;2024-03-22T13:43:19;10.02;;;5.43;;
9860;SDS011;4969;52.304;4.968;2024-03-22T13:45:44;9.83;;;5.30;;
9860;SDS011;4969;52.304;4.968;2024-03-22T13:48:13;12.87;;;6.20;;
9860;SDS011;4969;52.304;4.968;2024-03-22T13:50:39;8.87;;;5.77;;
9860;SDS011;4969;52.304;4.968;2024-03-22T13:53:06;12.50;;;6.50;;
9860;SDS011;4969;52.304;4.968;2024-03-22T13:55:33;12.00;;;6.03;;
9860;SDS011;4969;52.304;4.968;2024-03-22T13:58:00;11.18;;;6.50;;
9860;SDS011;4969;52.304;4.968;2024-03-22T14:00:26;10.05;;;6.20;;
9860;SDS011;4969;52.304;4.968;2024-03-22T14:02:53;11.70;;;6.07;;
9860;SDS011;4969;52.304;4.968;2024-03-22T14:05:21;13.07;;;5.45;;
9860;SDS011;4969;52.304;4.968;2024-03-22T14:07:49;10.98;;;5.65;;
9860;SDS011;4969;52.304;4.968;2024-03-22T14:10:15;12.80;;;5.77;;
9860;SDS011;4969;52.304;4.968;2024-03-22T14:12:41;14.50;;;5.57;;
9860;SDS011;4969;52.304;4.968;2024-03-22T14:15:07;14.07;;;5.43;;
9860;SDS011;4969;52.304;4.968;2024-03-22T14:17:34;15.70;;;5.57;;
9860;SDS011;4969;52.304;4.968;2024-03-22T14:20:00;14.50;;;5.10;;
9860;SDS011;4969;52.304;4.968;2024-03-22T14:22:32;11.80;;;4.53;;
9860;SDS011;4969;52.304;4.968;2024-03-22T14:24:57;15.23;;;5.10;;
9860;SDS011;4969;52.304;4.968;2024-03-22T14:27:24;11.70;;;4.43;;
9860;SDS011;4969;52.304;4.968;2024-03-22T14:29:50;11.93;;;4.40;;
9860;SDS011;4969;52.304;4.968;2024-03-22T14:32:17;14.47;;;5.80;;
9860;SDS011;4969;52.304;4.968;2024-03-22T14:34:42;13.60;;;5.30;;
9860;SDS011;4969;52.304;4.968;2024-03-22T14:37:09;15.23;;;5.53;;
9860;SDS011;4969;52.304;4.968;2024-03-22T14:39:36;16.47;;;5.17;;
9860;SDS011;4969;52.304;4.968;2024-03-22T14:42:02;12.43;;;4.30;;
9860;SDS011;4969;52.304;4.968;2024-03-22T14:44:28;9.53;;;3.80;;
9860;SDS011;4969;52.304;4.968;2024-03-22T14:46:55;15.38;;;4.70;;
9860;SDS011;4969;52.304;4.968;2024-03-22T14:49:23;16.30;;;4.43;;
9860;SDS011;4969;52.304;4.968;2024-03-22T14:51:49;12.02;;;4.35;;
9860;SDS011;4969;52.304;4.968;2024-03-22T14:54:15;16.67;;;4.65;;
9860;SDS011;4969;52.304;4.968;2024-03-22T14:56:43;16.83;;;4.20;;
9860;SDS011;4969;52.304;4.968;2024-03-22T14:59:09;17.23;;;4.60;;
9860;SDS011;4969;52.304;4.968;2024-03-22T15:01:35;18.13;;;4.87;;